Flight Track Log - Related Links

Times and Time Zones

All times are in EDT time to prevent confusion due to time zone crossing. See the JZA8874 flight status page for this flight to view local times or setup timezone preferences in your user account.

Time Position Orientation Groundspeed Altitude Reporting Facility
EDT Latitude Longitude Course Direction KTS MPH feet Rate Location/Type
Sun 05:29:31 PM 45.4500 -73.7167 35° Northeast 10 12 100  Level Montreal Center
Sun 05:31:31 PM 45.4667 -73.7000 46° Northeast 120 138 1,100 1,133 Climbing Montreal Center
Sun 05:32:31 PM 45.5000 -73.6500 110° East 160 184 3,500 2,050 Climbing Montreal Center
Sun 05:33:31 PM 45.4833 -73.5833 115° Southeast 190 219 5,200 2,250 Climbing Montreal Center
Sun 05:34:31 PM 45.4500 -73.4833 103° East 250 288 8,000 2,550 Climbing Montreal Center
Sun 05:35:31 PM 45.4333 -73.3833 110° East 270 311 10,300 1,650 Climbing Montreal Center
Sun 05:36:31 PM 45.4000 -73.2500 99° East 310 357 11,300 1,200 Climbing Montreal Center
Sun 05:37:31 PM 45.3833 -73.1000 90° East 370 426 12,700 1,850 Climbing Montreal Center
Sun 05:38:31 PM 45.3833 -72.9667 90° East 390 449 15,000 2,300 Climbing Montreal Center
Sun 05:39:31 PM 45.3833 -72.8000 90° East 390 449 17,300 1,850 Climbing Montreal Center
Sun 05:40:31 PM 45.3833 -72.6500 90° East 400 460 18,700 1,550 Climbing Montreal Center
Sun 05:41:31 PM 45.3833 -72.4667 90° East 420 483 20,400 1,650 Climbing Montreal Center
Sun 05:42:31 PM 45.3833 -72.3000 98° East 430 495 22,000 1,500 Climbing Montreal Center
Sun 05:43:31 PM 45.3667 -72.1333 82° East 440 506 23,400 1,300 Climbing Montreal Center
Sun 05:44:31 PM 45.3833 -71.9667 90° East 450 518 24,600 1,300 Climbing Montreal Center
Sun 05:45:31 PM 45.3833 -71.7667 97° East 460 529 26,000 1,300 Climbing Montreal Center
Sun 05:46:31 PM 45.3667 -71.5833 83° East 460 529 27,200 1,050 Climbing Montreal Center
Sun 05:47:31 PM 45.3833 -71.3833 97° East 470 541 28,100 800 Climbing Montreal Center
Sun 05:48:31 PM 45.3667 -71.2000 85° East 490 564 28,800 783 Climbing Montreal Center
Sun 05:49:26 PM 45.3758 -71.0603 93° East 481 554 29,600 1,096 Climbing Boston Center
Sun 05:50:26 PM 45.3669 -70.8508 95° East 486 559 30,900 1,150 Climbing Boston Center
Sun 05:51:26 PM 45.3558 -70.6533 94° East 492 566 31,900 1,000 Climbing Boston Center
Sun 05:52:26 PM 45.3464 -70.4586 95° East 497 572 32,900 950 Climbing Boston Center
Sun 05:53:26 PM 45.3344 -70.2611 95° East 497 572 33,800 950 Climbing Boston Center
Sun 05:54:26 PM 45.3222 -70.0639 94° East 497 572 34,800 850 Climbing Boston Center
Sun 05:55:26 PM 45.3119 -69.8694 95° East 497 572 35,500 700 Climbing Boston Center
Sun 05:56:26 PM 45.2992 -69.6722 95° East 502 578 36,200 550 Climbing Boston Center
Sun 05:57:26 PM 45.2858 -69.4694 95° East 502 578 36,600 400 Climbing Boston Center
Sun 05:58:26 PM 45.2753 -69.3075 95° East 507 583 37,000 200 Climbing Boston Center
Sun 05:59:26 PM 45.2606 -69.0814 95° East 514 592 37,000  Level Boston Center
Sun 06:00:26 PM 45.2481 -68.8697 96° East 526 605 37,000  Level Boston Center
Sun 06:01:26 PM 45.2331 -68.6614 96° East 532 612 37,000  Level Boston Center
Sun 06:02:26 PM 45.2178 -68.4558 96° East 532 612 37,000  Level Boston Center
Sun 06:03:26 PM 45.2022 -68.2536 96° East 532 612 37,000  Level Boston Center
Sun 06:04:26 PM 45.1856 -68.0281 104° East 527 606 37,000  Level Boston Center
Sun 06:05:23 PM 45.1500 -67.8333 90° East 520 598 37,000  Level Moncton Center
Sun 06:06:23 PM 45.1500 -67.6167 102° East 530 610 37,000  Level Moncton Center
Sun 06:07:23 PM 45.1167 -67.4000 97° East 530 610 37,000  Level Moncton Center
Sun 06:08:23 PM 45.1000 -67.2167 90° East 530 610 37,000  Level Moncton Center
Sun 06:09:23 PM 45.1000 -67.0000 104° East 520 598 37,000 -50 Level Moncton Center
Sun 06:10:23 PM 45.0667 -66.8167 96° East 520 598 36,900 -600 Descending Moncton Center
Sun 06:11:23 PM 45.0500 -66.6000 96° East 520 598 35,800 -950 Descending Moncton Center
Sun 06:12:23 PM 45.0333 -66.3833 97° East 530 610 35,000 -400 Descending Moncton Center
Sun 06:13:23 PM 45.0167 -66.2000 96° East 520 598 35,000  Level Moncton Center
Sun 06:14:23 PM 45.0000 -65.9833 97° East 520 598 35,000 -200 Level Moncton Center
Sun 06:15:23 PM 44.9833 -65.8000 102° East 520 598 34,600 -1,800 Descending Moncton Center
Sun 06:16:23 PM 44.9500 -65.5833 97° East 520 598 31,400 -3,000 Descending Moncton Center
Sun 06:17:23 PM 44.9333 -65.3833 97° East 500 575 28,600 -2,700 Descending Moncton Center
Sun 06:18:23 PM 44.9167 -65.2000 97° East 490 564 26,000 -2,650 Descending Moncton Center
Sun 06:19:23 PM 44.9000 -65.0167 90° East 480 552 23,300 -2,550 Descending Moncton Center
Sun 06:20:23 PM 44.9000 -64.8167 90° East 470 541 20,900 -2,500 Descending Moncton Center
Sun 06:21:23 PM 44.9000 -64.6333 90° East 460 529 18,300 -2,500 Descending Moncton Center
Sun 06:22:23 PM 44.9000 -64.4667 74° East 440 506 15,900 -2,300 Descending Moncton Center
Sun 06:23:23 PM 44.9333 -64.3000 80° East 420 483 13,700 -1,950 Descending Moncton Center
Sun 06:24:23 PM 44.9500 -64.1667 81° East 390 449 12,000 -1,450 Descending Moncton Center
Sun 06:25:23 PM 44.9667 -64.0167 79° East 360 414 10,800 -1,350 Descending Moncton Center
Sun 06:26:23 PM 44.9833 -63.9000 68° East 330 380 9,300 -1,550 Descending Moncton Center
Sun 06:27:23 PM 45.0167 -63.7833 81° East 330 380 7,700 -1,550 Descending Moncton Center
Sun 06:28:23 PM 45.0333 -63.6333 74° East 310 357 6,200 -1,500 Descending Moncton Center
Sun 06:29:23 PM 45.0500 -63.5500 90° East 300 345 4,700 -1,450 Descending Moncton Center
Sun 06:30:23 PM 45.0500 -63.4333 133° Southeast 290 334 3,300 -1,100 Descending Moncton Center
Sun 06:31:23 PM 45.0167 -63.3833 193° South 230 265 2,500 -550 Descending Moncton Center
Sun 06:32:23 PM 44.9667 -63.4000 215° Southwest 190 219 2,200 -450 Descending Moncton Center
Sun 06:33:23 PM 44.9167 -63.4500 215° Southwest 170 196 1,600 -650 Descending Moncton Center
Sun 06:34:23 PM 44.8833 -63.4833 200° South 150 173 900 -550 Descending Moncton Center
Sun 06:35:23 PM 44.8500 -63.5000 215° Southwest 150 173 500 -200 Descending Moncton Center
Sun 06:36:23 PM 44.8333 -63.5167 215° Southwest 110 127 500  Level Moncton Center

Login

Don't have an account? Register now (free) for customized features, flight alerts, and more!